Time;durP1;ratioP1;P1;durP2;ratioP2;P2;SDS_P1;SDS_P2;PMS_P1;PMS_P2;Temp;Humidity;BMP_temperature;BMP_pressure;BME280_temperature;BME280_humidity;BME280_pressure;Samples;Min_cycle;Max_cycle;Signal;HPM_P1;HPM_P2
2022/01/10 00:03:58;;;;;;;89.43;37.20;;;;;;;-2.38;99.35;99848.39;3551968;81;99174;-83
2022/01/10 00:08:59;;;;;;;76.37;33.73;;;;;;;-2.40;99.34;99853.84;3487734;82;99399;-82
2022/01/10 00:14:00;;;;;;;78.53;35.27;;;;;;;-2.42;99.43;99856.03;3506669;82;99104;-82
2022/01/10 00:19:01;;;;;;;75.70;36.23;;;;;;;-2.46;99.39;99860.45;3497464;82;98995;-83
2022/01/10 00:24:02;;;;;;;87.93;37.23;;;;;;;-2.47;99.55;99871.77;3536112;81;99471;-83
2022/01/10 00:29:03;;;;;;;85.57;39.07;;;;;;;-2.50;99.44;99887.21;3545125;81;99302;-83
2022/01/10 00:34:04;;;;;;;77.87;37.10;;;;;;;-2.52;99.71;99891.30;3539856;81;99371;-83
2022/01/10 00:39:05;;;;;;;78.87;34.83;;;;;;;-2.60;99.44;99895.52;3542628;81;99087;-83
2022/01/10 00:44:08;;;;;;;69.03;35.60;;;;;;;-2.64;99.69;99903.13;3492102;83;99017;-83
2022/01/10 00:49:09;;;;;;;83.83;35.57;;;;;;;-2.64;100.00;99912.56;3548089;81;99007;-83
2022/01/10 00:54:10;;;;;;;89.77;36.77;;;;;;;-2.66;99.83;99918.81;3514589;82;99095;-84
2022/01/10 00:59:11;;;;;;;91.22;39.65;;;;;;;-2.71;99.67;99921.61;3525939;80;98959;-84
2022/01/10 01:04:12;;;;;;;79.92;35.52;;;;;;;-2.72;100.00;99933.48;3525338;82;100965;-84
2022/01/10 01:09:15;;;;;;;88.30;38.50;;;;;;;-2.72;100.00;99938.34;3509677;82;99739;-84
2022/01/10 01:14:50;;;;;;;74.70;32.50;;;;;;;-2.73;100.00;99954.22;3484866;83;99125;-84
2022/01/10 01:24:20;;;;;;;79.30;34.13;;;;;;;-2.78;100.00;99962.97;3519307;82;98802;-84
2022/01/10 01:29:25;;;;;;;84.43;34.70;;;;;;;-2.81;100.00;99970.28;3511258;82;99281;-84
2022/01/10 01:34:26;;;;;;;74.58;35.28;;;;;;;-2.82;100.00;99980.81;3539149;82;99234;-84
2022/01/10 01:39:30;;;;;;;82.78;35.85;;;;;;;-2.82;100.00;99995.08;3523568;80;99239;-84
2022/01/10 01:44:31;;;;;;;88.77;38.40;;;;;;;-2.86;100.00;100000.81;3529730;82;99517;-84
2022/01/10 01:49:32;;;;;;;76.27;33.97;;;;;;;-2.88;100.00;100007.05;3519172;82;99495;-84
2022/01/10 01:54:33;;;;;;;77.93;34.93;;;;;;;-2.92;100.00;100023.55;3550730;82;32540;-84
2022/01/10 01:59:37;;;;;;;80.27;32.47;;;;;;;-2.96;100.00;100027.14;3528007;82;99332;-84
2022/01/10 02:04:38;;;;;;;72.97;33.83;;;;;;;-2.99;100.00;100033.11;3537600;81;99376;-84
2022/01/10 02:09:39;;;;;;;77.03;36.53;;;;;;;-3.01;100.00;100035.30;3541303;82;99493;-84
2022/01/10 02:14:43;;;;;;;73.83;32.80;;;;;;;-3.02;100.00;100048.48;3574427;81;99370;-85
2022/01/10 02:19:58;;;;;;;72.97;36.10;;;;;;;-3.05;100.00;100057.98;3561786;81;99350;-84
2022/01/10 02:24:59;;;;;;;73.73;32.40;;;;;;;-3.05;100.00;100063.91;3569919;81;27171;-84
2022/01/10 02:30:00;;;;;;;78.23;33.93;;;;;;;-3.09;100.00;100070.42;3559487;81;99470;-84
2022/01/10 02:35:01;;;;;;;78.70;33.83;;;;;;;-3.14;100.00;100079.94;3564956;81;99731;-85
2022/01/10 02:40:06;;;;;;;75.73;34.03;;;;;;;-3.18;100.00;100091.03;3544658;81;99670;-85
2022/01/10 02:45:08;;;;;;;73.67;32.60;;;;;;;-3.21;100.00;100087.59;3534868;81;99360;-85
2022/01/10 02:50:10;;;;;;;73.37;31.45;;;;;;;-3.25;100.00;100093.31;3533982;82;99690;-85
2022/01/10 02:55:13;;;;;;;67.57;31.63;;;;;;;-3.26;100.00;100098.98;3526595;82;26185;-85
2022/01/10 03:00:19;;;;;;;69.70;32.10;;;;;;;-3.30;100.00;100109.53;3570227;81;99533;-85
2022/01/10 03:05:23;;;;;;;64.85;30.32;;;;;;;-3.33;100.00;100115.48;3556350;81;99310;-85
2022/01/10 03:10:24;;;;;;;68.60;30.10;;;;;;;-3.31;100.00;100124.61;3540426;80;99446;-85
2022/01/10 03:15:26;;;;;;;67.67;32.70;;;;;;;-3.30;100.00;100136.44;3519950;82;99656;-85
2022/01/10 03:20:27;;;;;;;66.83;33.43;;;;;;;-3.27;100.00;100147.16;3483171;83;99375;-85
2022/01/10 03:25:28;;;;;;;62.60;32.47;;;;;;;-3.26;100.00;100156.83;3517467;82;99377;-85
2022/01/10 03:30:29;;;;;;;79.50;33.93;;;;;;;-3.25;100.00;100155.73;3515968;82;99005;-86
2022/01/10 03:35:30;;;;;;;77.33;36.93;;;;;;;-3.23;100.00;100173.18;3512811;81;98428;-85
2022/01/10 03:40:31;;;;;;;77.23;32.93;;;;;;;-3.24;100.00;100175.63;3510811;82;99371;-85
2022/01/10 03:45:32;;;;;;;77.33;32.93;;;;;;;-3.25;100.00;100183.45;3511166;82;99436;-86
2022/01/10 03:50:33;;;;;;;76.57;31.37;;;;;;;-3.24;100.00;100206.57;3508995;82;99387;-86
2022/01/10 03:55:34;;;;;;;78.87;34.60;;;;;;;-3.29;100.00;100205.86;3510860;82;99419;-86
2022/01/10 04:00:35;;;;;;;74.97;32.73;;;;;;;-3.29;100.00;100217.97;3491812;82;99445;-85
2022/01/10 04:05:36;;;;;;;72.63;32.93;;;;;;;-3.25;100.00;100232.41;3511786;82;99621;-85
2022/01/10 04:10:37;;;;;;;73.80;31.82;;;;;;;-3.25;100.00;100244.52;3498819;82;99425;-86
2022/01/10 04:15:38;;;;;;;67.43;30.60;;;;;;;-3.25;100.00;100253.94;3517345;82;99490;-86
2022/01/10 04:20:39;;;;;;;68.50;32.27;;;;;;;-3.24;100.00;100275.19;3537983;81;99290;-86
2022/01/10 04:25:40;;;;;;;76.50;31.90;;;;;;;-3.24;100.00;100281.91;3551868;82;99393;-86
2022/01/10 04:30:41;;;;;;;75.87;33.47;;;;;;;-3.21;100.00;100295.33;3538754;82;98989;-86
2022/01/10 04:35:42;;;;;;;73.37;34.40;;;;;;;-3.28;100.00;100315.08;3535537;82;99586;-86
2022/01/10 04:40:43;;;;;;;72.70;31.27;;;;;;;-3.28;100.00;100316.42;3476957;82;99859;-86
2022/01/10 04:45:44;;;;;;;67.83;31.13;;;;;;;-3.34;100.00;100325.09;3528435;82;99743;-87
2022/01/10 04:51:31;;;;;;;75.63;35.73;;;;;;;-3.40;100.00;100330.28;3546732;81;99786;-87
2022/01/10 04:55:52;;;;;;;81.10;33.30;;;;;;;-3.49;100.00;100340.06;3512523;82;99363;-86
2022/01/10 05:00:55;;;;;;;74.77;32.43;;;;;;;-3.57;100.00;100347.42;3553739;81;99279;-87
2022/01/10 05:05:56;;;;;;;74.17;32.67;;;;;;;-3.58;100.00;100357.94;3486991;82;99248;-86
2022/01/10 05:10:57;;;;;;;76.33;32.90;;;;;;;-3.61;100.00;100375.97;3468380;82;99312;-87
2022/01/10 05:15:58;;;;;;;74.60;33.90;;;;;;;-3.64;100.00;100390.00;3558074;81;99357;-86
2022/01/10 05:20:59;;;;;;;80.63;36.47;;;;;;;-3.65;100.00;100401.04;3568321;81;99252;-86
2022/01/10 05:26:01;;;;;;;75.80;31.87;;;;;;;-3.67;100.00;100400.53;3568840;79;99800;-86
2022/01/10 05:31:02;;;;;;;81.87;38.23;;;;;;;-3.66;100.00;100416.92;3565444;81;98928;-87
2022/01/10 05:36:03;;;;;;;73.10;33.80;;;;;;;-3.67;100.00;100425.52;3558081;81;99642;-86
2022/01/10 05:41:04;;;;;;;83.00;36.80;;;;;;;-3.67;100.00;100428.77;3551804;81;99266;-86
2022/01/10 05:46:09;;;;;;;72.70;34.17;;;;;;;-3.68;100.00;100445.43;3536132;81;99766;-86
2022/01/10 05:51:10;;;;;;;76.27;34.00;;;;;;;-3.68;100.00;100458.88;3561632;81;99415;-86
2022/01/10 05:56:11;;;;;;;73.93;32.63;;;;;;;-3.66;100.00;100459.95;3567946;81;99357;-87
2022/01/10 06:01:11;;;;;;;80.67;34.77;;;;;;;-3.66;100.00;100478.21;3511345;82;99263;-86
2022/01/10 06:06:12;;;;;;;87.23;39.17;;;;;;;-3.68;100.00;100495.71;3518111;81;99738;-86
2022/01/10 06:11:14;;;;;;;79.77;36.30;;;;;;;-3.72;100.00;100500.85;3560359;80;99436;-87
2022/01/10 06:16:16;;;;;;;81.10;37.07;;;;;;;-3.75;100.00;100511.37;3571714;81;98930;-87
2022/01/10 06:21:17;;;;;;;84.40;38.33;;;;;;;-3.78;100.00;100515.42;3585355;81;99299;-87
2022/01/10 06:26:18;;;;;;;73.90;35.57;;;;;;;-3.79;100.00;100523.77;3587340;79;99439;-86
2022/01/10 06:31:19;;;;;;;76.02;33.63;;;;;;;-3.76;100.00;100535.31;3583703;81;99068;-86
2022/01/10 06:36:20;;;;;;;69.80;33.57;;;;;;;-3.74;100.00;100546.05;3581964;80;99024;-85
2022/01/10 06:41:22;;;;;;;81.40;36.27;;;;;;;-3.72;100.00;100554.63;3544457;81;99340;-85
2022/01/10 06:46:22;;;;;;;74.60;35.57;;;;;;;-3.68;100.00;100566.97;3573733;81;99713;-85
2022/01/10 06:51:24;;;;;;;81.63;34.53;;;;;;;-3.67;100.00;100580.70;3553715;81;99249;-85
2022/01/10 06:56:24;;;;;;;84.87;38.20;;;;;;;-3.64;100.00;100598.95;3555088;81;99817;-85
2022/01/10 07:01:25;;;;;;;86.77;36.30;;;;;;;-3.64;100.00;100611.88;3525994;82;99542;-86
2022/01/10 07:06:26;;;;;;;83.93;36.80;;;;;;;-3.66;100.00;100622.09;3526140;82;99345;-84
2022/01/10 07:11:28;;;;;;;77.00;34.70;;;;;;;-3.68;100.00;100643.09;3514606;82;99647;-84
2022/01/10 07:16:28;;;;;;;81.97;37.57;;;;;;;-3.74;100.00;100653.61;3519689;82;100065;-85
2022/01/10 07:21:30;;;;;;;73.67;34.53;;;;;;;-3.78;100.00;100663.30;3528694;81;99462;-84
2022/01/10 07:26:32;;;;;;;67.67;32.43;;;;;;;-3.77;100.00;100660.09;3564788;81;99301;-85
2022/01/10 07:31:33;;;;;;;76.20;33.97;;;;;;;-3.76;100.00;100694.74;3549073;81;99747;-85
2022/01/10 07:36:35;;;;;;;76.70;35.40;;;;;;;-3.79;100.00;100695.31;3569098;81;32535;-85
2022/01/10 07:41:36;;;;;;;79.80;34.33;;;;;;;-3.79;100.00;100699.88;3563245;79;99394;-85
2022/01/10 07:46:37;;;;;;;77.83;35.50;;;;;;;-3.76;100.00;100716.25;3598042;80;99488;-84
2022/01/10 07:51:39;;;;;;;83.10;37.13;;;;;;;-3.76;100.00;100724.32;3533759;81;99701;-85
2022/01/10 07:56:40;;;;;;;78.53;35.57;;;;;;;-3.71;100.00;100735.06;3515324;82;98489;-85
2022/01/10 08:01:41;;;;;;;79.43;36.30;;;;;;;-3.68;100.00;100742.59;3566188;81;99134;-85
2022/01/10 08:06:42;;;;;;;76.43;34.50;;;;;;;-3.63;100.00;100743.91;3563241;81;33694;-85
2022/01/10 08:11:44;;;;;;;90.43;40.40;;;;;;;-3.58;100.00;100753.31;3572980;81;98988;-85
2022/01/10 08:16:45;;;;;;;81.17;36.73;;;;;;;-3.52;100.00;100766.17;3490392;82;98716;-84
2022/01/10 08:21:47;;;;;;;76.87;35.65;;;;;;;-3.48;100.00;100777.48;3474658;83;99021;-84
2022/01/10 08:26:48;;;;;;;82.30;38.43;;;;;;;-3.43;100.00;100792.25;3489289;82;98713;-84
2022/01/10 08:31:49;;;;;;;81.43;37.30;;;;;;;-3.37;100.00;100802.44;3548309;81;98520;-84
2022/01/10 08:36:52;;;;;;;84.43;37.40;;;;;;;-3.33;100.00;100815.05;3540464;81;33215;-85
2022/01/10 08:41:53;;;;;;;81.87;37.40;;;;;;;-3.32;100.00;100830.14;3513926;82;99204;-85
2022/01/10 08:46:54;;;;;;;80.10;37.23;;;;;;;-3.21;100.00;100845.69;3494628;79;99473;-84
2022/01/10 08:51:57;;;;;;;78.80;36.70;;;;;;;-3.10;100.00;100848.06;3472900;83;99413;-84
2022/01/10 08:57:00;;;;;;;90.63;41.13;;;;;;;-3.04;100.00;100852.87;3552911;81;98575;-83
2022/01/10 09:02:02;;;;;;;80.53;39.13;;;;;;;-3.01;99.72;100861.19;3515989;82;99816;-84
2022/01/10 09:07:03;;;;;;;79.60;37.27;;;;;;;-3.01;99.77;100882.73;3487231;83;25806;-84
2022/01/10 09:12:06;;;;;;;82.08;36.65;;;;;;;-2.95;99.69;100892.39;3470094;83;99051;-84
2022/01/10 09:17:07;;;;;;;85.37;40.13;;;;;;;-2.93;99.53;100901.02;3547097;81;98244;-84
2022/01/10 09:22:08;;;;;;;86.60;40.43;;;;;;;-2.85;99.63;100915.23;3522365;82;98827;-84
2022/01/10 09:27:09;;;;;;;84.50;38.60;;;;;;;-2.76;99.61;100925.70;3517743;82;99170;-84
2022/01/10 09:32:10;;;;;;;84.27;41.40;;;;;;;-2.67;99.55;100921.33;3492763;81;99535;-84
2022/01/10 09:37:11;;;;;;;80.27;39.10;;;;;;;-2.49;99.62;100938.22;3495077;83;34044;-83
2022/01/10 09:42:12;;;;;;;88.53;40.83;;;;;;;-2.31;99.12;100936.21;3491548;80;99071;-84
2022/01/10 09:47:14;;;;;;;78.63;41.00;;;;;;;-2.14;99.02;100941.23;3484992;82;98232;-84
2022/01/10 09:52:16;;;;;;;79.77;39.17;;;;;;;-2.01;98.56;100970.24;3541943;81;98849;-83
2022/01/10 09:57:17;;;;;;;118.90;46.90;;;;;;;-1.89;97.78;100979.59;3528071;82;98589;-83
2022/01/10 10:02:18;;;;;;;123.37;53.30;;;;;;;-1.73;98.27;100997.28;3517155;82;99360;-83
2022/01/10 10:07:23;;;;;;;91.80;44.77;;;;;;;-1.62;97.85;101000.69;3525636;82;33184;-84
2022/01/10 10:12:29;;;;;;;88.70;43.90;;;;;;;-1.52;97.58;101018.15;3495593;82;98801;-83
2022/01/10 10:17:31;;;;;;;78.95;39.35;;;;;;;-1.48;96.86;101017.85;3463014;83;98878;-82
2022/01/10 10:22:32;;;;;;;70.35;36.23;;;;;;;-1.38;97.67;101018.55;3489062;83;99116;-83
2022/01/10 10:27:38;;;;;;;74.90;35.57;;;;;;;-1.27;97.39;101021.98;3467233;84;99509;-83
2022/01/10 10:32:39;;;;;;;69.20;34.60;;;;;;;-1.20;97.16;101031.90;3479358;83;99051;-82
2022/01/10 10:37:43;;;;;;;70.53;34.37;;;;;;;-1.09;97.11;101043.66;3521050;82;99015;-82
2022/01/10 10:42:45;;;;;;;76.27;35.23;;;;;;;-1.02;96.75;101049.55;3514462;82;98847;-80
2022/01/10 10:47:46;;;;;;;70.13;33.57;;;;;;;-0.93;96.78;101066.72;3507863;82;98894;-80
2022/01/10 10:52:49;;;;;;;78.70;35.37;;;;;;;-0.87;96.51;101062.09;3510786;81;98923;-80
2022/01/10 10:57:50;;;;;;;67.43;34.13;;;;;;;-0.79;96.55;101070.91;3529628;82;98265;-80
2022/01/10 11:02:51;;;;;;;67.33;33.00;;;;;;;-0.67;96.65;101067.28;3505300;82;99296;-80
2022/01/10 11:07:53;;;;;;;68.87;31.93;;;;;;;-0.57;96.15;101073.91;3510431;82;99408;-80
2022/01/10 11:12:57;;;;;;;67.30;32.73;;;;;;;-0.49;95.90;101090.86;3584081;81;98870;-80
2022/01/10 11:18:06;;;;;;;66.40;30.87;;;;;;;-0.40;95.83;101092.64;3591559;81;98961;-81
2022/01/10 11:23:09;;;;;;;56.77;28.17;;;;;;;-0.30;95.31;101101.98;3575234;81;99047;-80
2022/01/10 11:28:14;;;;;;;67.10;30.63;;;;;;;-0.21;95.54;101101.61;3601968;79;98638;-82
2022/01/10 11:33:22;;;;;;;60.03;27.70;;;;;;;-0.12;95.26;101120.15;3598554;80;99001;-81
2022/01/10 11:38:48;;;;;;;59.63;29.53;;;;;;;-0.06;95.22;101123.86;3592098;80;99185;-81
2022/01/10 11:44:08;;;;;;;59.00;29.37;;;;;;;-0.07;94.97;101120.66;3590326;81;99348;-82
2022/01/10 11:49:15;;;;;;;62.35;28.95;;;;;;;0.05;95.12;101137.52;3548465;82;98658;-83
2022/01/10 11:54:26;;;;;;;62.10;29.18;;;;;;;0.11;95.15;101147.75;3491151;83;98633;-83
2022/01/10 11:59:30;;;;;;;61.63;29.80;;;;;;;0.15;94.81;101156.88;3493515;81;98669;-83
2022/01/10 12:04:37;;;;;;;61.20;31.33;;;;;;;0.17;94.56;101170.94;3525906;82;99268;-85
2022/01/10 12:09:39;;;;;;;60.20;30.57;;;;;;;0.20;94.43;101176.58;3492320;82;99098;-83
2022/01/10 12:14:40;;;;;;;62.57;30.10;;;;;;;0.23;94.59;101183.31;3529260;82;98864;-83
2022/01/10 12:19:42;;;;;;;72.10;33.60;;;;;;;0.20;93.95;101190.11;3489663;83;99250;-83
2022/01/10 12:24:43;;;;;;;75.40;35.67;;;;;;;0.19;93.84;101202.03;3533252;82;25892;-83
2022/01/10 12:29:45;;;;;;;67.23;32.53;;;;;;;0.21;93.64;101212.02;3561098;80;99163;-83
2022/01/10 12:34:46;;;;;;;67.00;34.50;;;;;;;0.23;93.31;101223.34;3568069;82;98055;-83
2022/01/10 12:39:48;;;;;;;67.77;30.90;;;;;;;0.22;93.04;101228.52;3497962;82;98874;-83
2022/01/10 12:44:50;;;;;;;72.47;32.67;;;;;;;0.20;93.00;101234.77;3541509;82;98845;-83
2022/01/10 12:49:53;;;;;;;61.02;30.43;;;;;;;0.17;92.82;101242.66;3506688;82;98876;-84
2022/01/10 12:54:54;;;;;;;63.33;31.17;;;;;;;0.15;92.57;101244.84;3558848;82;26610;-84
2022/01/10 12:59:56;;;;;;;68.77;34.23;;;;;;;0.15;92.45;101263.78;3518651;82;98738;-84
2022/01/10 13:04:57;;;;;;;71.10;35.43;;;;;;;0.12;92.54;101275.20;3545585;81;98687;-84
2022/01/10 13:10:05;;;;;;;69.73;34.53;;;;;;;0.13;92.75;101291.69;3567872;82;99121;-84
2022/01/10 13:15:10;;;;;;;85.90;41.25;;;;;;;0.11;92.71;101299.30;3500450;82;99267;-83
2022/01/10 13:20:13;;;;;;;80.93;38.10;;;;;;;0.06;92.53;101314.23;3621229;80;98835;-84
2022/01/10 13:25:18;;;;;;;95.20;43.60;;;;;;;-0.11;92.33;101320.06;3637585;80;25803;-83
2022/01/10 13:30:26;;;;;;;91.30;41.53;;;;;;;-0.23;92.29;101338.31;3574812;81;99131;-84
2022/01/10 13:35:32;;;;;;;94.42;43.13;;;;;;;-0.34;92.57;101348.95;3591712;81;98925;-84
2022/01/10 13:40:46;;;;;;;102.67;46.97;;;;;;;-0.47;92.39;101360.39;3594356;80;98996;-83
2022/01/10 13:45:53;;;;;;;103.13;47.03;;;;;;;-0.64;92.97;101374.84;3626853;80;99240;-83
2022/01/10 13:51:15;;;;;;;93.20;42.60;;;;;;;-0.81;93.20;101396.02;3622649;79;99207;-83
2022/01/10 13:56:23;;;;;;;100.17;44.30;;;;;;;-0.98;93.38;101407.20;3625162;80;99648;-83
2022/01/10 14:01:33;;;;;;;91.97;41.37;;;;;;;-1.18;93.72;101415.38;3606736;80;98208;-83
2022/01/10 14:06:34;;;;;;;99.53;43.97;;;;;;;-1.29;94.11;101425.94;3631506;80;98713;-83
2022/01/10 14:11:39;;;;;;;99.17;44.20;;;;;;;-1.41;94.80;101435.41;3592181;80;98336;-83
2022/01/10 14:16:44;;;;;;;92.20;41.00;;;;;;;-1.47;95.20;101441.38;3611423;80;98147;-83
2022/01/10 14:21:43;;;;;;;86.67;38.53;;;;;;;-1.52;95.63;101456.23;3584473;80;98999;-83
2022/01/10 14:26:45;;;;;;;81.33;36.03;;;;;;;-1.65;95.95;101466.77;3593061;80;98424;-83
2022/01/10 14:31:47;;;;;;;76.07;36.00;;;;;;;-1.81;96.25;101475.95;3575744;81;99296;-82
2022/01/10 14:36:48;;;;;;;76.60;33.47;;;;;;;-1.88;96.60;101487.00;3585474;81;26416;-83
2022/01/10 14:41:49;;;;;;;82.00;34.97;;;;;;;-1.91;97.16;101499.66;3565830;81;98167;-82
2022/01/10 14:46:51;;;;;;;76.10;33.43;;;;;;;-1.92;97.32;101510.19;3597499;81;99513;-82
2022/01/10 14:51:57;;;;;;;79.83;34.67;;;;;;;-1.87;97.91;101514.25;3633139;79;99083;-82
2022/01/10 14:56:56;;;;;;;72.50;31.67;;;;;;;-1.81;98.02;101526.66;3591784;81;98444;-83
2022/01/10 15:01:57;;;;;;;69.63;30.90;;;;;;;-1.81;97.95;101534.75;3554759;81;98903;-83
2022/01/10 15:06:58;;;;;;;74.03;31.47;;;;;;;-1.79;98.10;101545.28;3573632;81;33176;-83
2022/01/10 15:11:59;;;;;;;69.80;30.70;;;;;;;-1.81;98.12;101552.84;3591604;81;98992;-83
2022/01/10 15:17:02;;;;;;;84.13;35.43;;;;;;;-1.80;98.49;101568.75;3622324;80;99109;-82
2022/01/10 15:22:04;;;;;;;69.30;30.47;;;;;;;-1.83;98.19;101588.70;3612678;80;99101;-82
2022/01/10 15:27:06;;;;;;;68.00;31.80;;;;;;;-1.89;98.33;101589.78;3621427;80;99540;-82
2022/01/10 15:32:07;;;;;;;69.23;30.43;;;;;;;-1.98;98.31;101593.53;3615020;80;99231;-83
2022/01/10 15:37:09;;;;;;;59.10;27.60;;;;;;;-2.00;98.63;101603.80;3622364;80;33182;-83
2022/01/10 15:42:14;;;;;;;62.20;28.73;;;;;;;-2.03;98.72;101614.30;3594707;81;99687;-83
2022/01/10 15:47:13;;;;;;;58.43;27.53;;;;;;;-2.04;98.86;101614.00;3624813;80;98959;-83
2022/01/10 15:52:15;;;;;;;61.67;26.17;;;;;;;-2.06;98.94;101635.88;3617808;79;99156;-82
2022/01/10 15:57:16;;;;;;;57.93;23.90;;;;;;;-2.05;99.07;101646.10;3615993;80;99199;-83
2022/01/10 16:02:18;;;;;;;53.93;23.40;;;;;;;-1.97;98.98;101658.55;3612337;79;99139;-83
2022/01/10 16:07:19;;;;;;;55.10;23.77;;;;;;;-1.97;99.07;101668.55;3615746;80;33247;-83
2022/01/10 16:12:24;;;;;;;49.70;21.07;;;;;;;-2.01;98.79;101667.44;3605601;80;99539;-83
2022/01/10 16:17:26;;;;;;;51.92;24.10;;;;;;;-1.98;99.08;101679.06;3611979;79;99209;-83
2022/01/10 16:22:27;;;;;;;40.63;20.53;;;;;;;-1.97;98.93;101684.72;3581099;81;99204;-84
2022/01/10 16:27:28;;;;;;;42.80;20.07;;;;;;;-1.94;98.88;101694.45;3533808;82;99152;-81
2022/01/10 16:32:28;;;;;;;48.50;22.67;;;;;;;-1.94;98.77;101703.89;3623692;80;99221;-83
2022/01/10 16:37:29;;;;;;;59.87;25.87;;;;;;;-1.95;98.84;101714.94;3622189;80;33555;-84
2022/01/10 16:42:30;;;;;;;48.78;22.55;;;;;;;-1.93;98.62;101733.01;3635744;79;99039;-84
2022/01/10 16:47:32;;;;;;;48.03;21.63;;;;;;;-1.89;98.75;101744.91;3577022;81;99365;-83
2022/01/10 16:52:32;;;;;;;38.53;17.70;;;;;;;-1.90;98.52;101755.42;3500435;80;99585;-84
2022/01/10 16:57:35;;;;;;;38.03;16.40;;;;;;;-1.92;98.45;101757.03;3439462;84;98324;-84
2022/01/10 17:02:37;;;;;;;32.27;14.97;;;;;;;-1.88;98.31;101765.41;3520051;81;99149;-83
2022/01/10 17:07:40;;;;;;;32.63;15.63;;;;;;;-1.87;98.08;101777.85;3544135;82;33529;-83
2022/01/10 17:12:48;;;;;;;33.13;14.60;;;;;;;-1.85;98.04;101783.27;3510860;82;98938;-84
2022/01/10 17:17:45;;;;;;;35.07;16.17;;;;;;;-1.77;97.94;101787.32;3547907;81;99104;-84
2022/01/10 17:22:47;;;;;;;37.33;18.50;;;;;;;-1.78;97.77;101804.06;3589610;81;99095;-83
2022/01/10 17:27:49;;;;;;;37.40;17.33;;;;;;;-1.79;97.49;101815.94;3591157;81;99572;-83
2022/01/10 17:32:53;;;;;;;39.37;19.57;;;;;;;-1.80;97.67;101820.24;3599871;81;99516;-84
2022/01/10 17:37:54;;;;;;;40.87;20.90;;;;;;;-1.80;97.69;101830.48;3608512;80;98924;-83
2022/01/10 17:42:56;;;;;;;38.28;18.12;;;;;;;-1.80;97.74;101839.92;3577999;81;98497;-83
2022/01/10 17:47:57;;;;;;;43.43;20.90;;;;;;;-1.77;97.56;101848.03;3583543;81;98279;-83
2022/01/10 17:52:58;;;;;;;34.40;16.53;;;;;;;-1.75;97.35;101854.01;3541771;82;98667;-84
2022/01/10 17:57:59;;;;;;;35.10;15.97;;;;;;;-1.75;97.00;101868.84;3588532;80;99174;-84
2022/01/10 18:03:01;;;;;;;33.77;16.83;;;;;;;-1.76;96.96;101867.23;3575568;81;99273;-84
2022/01/10 18:08:03;;;;;;;34.07;15.97;;;;;;;-1.78;96.94;101865.30;3567899;81;99225;-84
2022/01/10 18:13:04;;;;;;;35.33;15.90;;;;;;;-1.75;96.86;101875.59;3578257;81;98933;-83
2022/01/10 18:18:08;;;;;;;31.27;14.03;;;;;;;-1.80;96.68;101884.45;3534347;82;98287;-84
2022/01/10 18:23:14;;;;;;;36.87;16.50;;;;;;;-1.82;96.43;101896.05;3515755;82;98805;-83
2022/01/10 18:28:16;;;;;;;43.37;17.80;;;;;;;-1.84;96.63;101905.48;3573558;80;99583;-84
2022/01/10 18:33:18;;;;;;;40.77;15.20;;;;;;;-1.87;96.41;101914.90;3531077;81;99524;-84
2022/01/10 18:38:20;;;;;;;37.67;17.20;;;;;;;-1.84;96.57;101927.06;3560559;80;99347;-84
2022/01/10 18:43:21;;;;;;;44.33;19.70;;;;;;;-1.88;96.38;101932.69;3596331;81;25640;-84
2022/01/10 18:48:24;;;;;;;39.43;19.37;;;;;;;-1.93;96.26;101935.34;3520461;82;99236;-85
2022/01/10 18:53:25;;;;;;;36.40;15.73;;;;;;;-1.98;96.25;101942.88;3534062;82;99700;-84
2022/01/10 18:58:26;;;;;;;39.97;18.33;;;;;;;-1.95;96.57;101950.47;3526059;81;99287;-84
2022/01/10 19:03:28;;;;;;;45.08;20.75;;;;;;;-1.90;96.49;101958.61;3586540;81;99258;-84
2022/01/10 19:08:30;;;;;;;50.30;19.97;;;;;;;-1.93;96.39;101958.28;3578058;80;99038;-84
2022/01/10 19:13:31;;;;;;;47.20;21.13;;;;;;;-1.90;96.38;101968.57;3587932;81;33046;-84
2022/01/10 19:18:32;;;;;;;49.90;21.65;;;;;;;-1.88;96.36;101975.86;3566888;81;99224;-83
2022/01/10 19:23:35;;;;;;;43.47;20.53;;;;;;;-1.88;96.28;101980.73;3553105;82;98983;-83
2022/01/10 19:28:36;;;;;;;50.90;22.53;;;;;;;-1.88;96.22;101983.95;3571474;80;99929;-83
2022/01/10 19:33:37;;;;;;;46.83;20.47;;;;;;;-1.93;96.02;101995.52;3591885;80;99593;-83
2022/01/10 19:38:38;;;;;;;57.10;25.90;;;;;;;-1.96;95.97;102010.06;3570767;80;98934;-83
2022/01/10 19:43:39;;;;;;;53.23;22.47;;;;;;;-2.06;95.95;102013.49;3527692;82;33244;-83
2022/01/10 19:48:41;;;;;;;49.48;25.17;;;;;;;-2.09;95.85;102031.52;3531533;81;99216;-83
2022/01/10 19:53:42;;;;;;;57.03;26.43;;;;;;;-2.21;95.93;102028.16;3527731;82;99188;-83
2022/01/10 19:58:46;;;;;;;46.53;22.57;;;;;;;-2.29;95.94;102046.13;3518825;82;99598;-83
2022/01/10 20:03:49;;;;;;;54.67;23.37;;;;;;;-2.37;96.00;102053.33;3507213;82;99420;-83
2022/01/10 20:08:51;;;;;;;67.32;27.95;;;;;;;-2.48;96.08;102064.23;3550258;81;99729;-83
2022/01/10 20:13:57;;;;;;;71.93;31.03;;;;;;;-2.53;96.22;102064.16;3515824;82;98514;-82
2022/01/10 20:18:58;;;;;;;64.53;28.97;;;;;;;-2.59;96.25;102070.56;3511613;82;98272;-83
2022/01/10 20:24:00;;;;;;;94.77;40.93;;;;;;;-2.66;96.39;102084.77;3528515;82;99374;-84
2022/01/10 20:29:01;;;;;;;108.77;42.13;;;;;;;-2.75;96.37;102098.37;3549157;82;98798;-84
2022/01/10 20:34:04;;;;;;;113.93;43.97;;;;;;;-2.81;96.53;102098.02;3576550;81;98631;-83
2022/01/10 20:39:05;;;;;;;104.07;39.55;;;;;;;-2.85;96.59;102109.83;3576315;79;99022;-84
2022/01/10 20:44:10;;;;;;;116.07;41.40;;;;;;;-2.89;96.62;102116.77;3566425;81;99845;-84
2022/01/10 20:49:12;;;;;;;88.37;36.67;;;;;;;-2.94;96.78;102119.93;3584000;81;99055;-84
2022/01/10 20:54:14;;;;;;;103.63;43.10;;;;;;;-2.97;96.92;102127.97;3608038;78;99003;-84
2022/01/10 20:59:18;;;;;;;100.83;39.77;;;;;;;-3.02;96.79;102130.58;3583676;79;99038;-84
2022/01/10 21:04:23;;;;;;;97.17;37.93;;;;;;;-3.09;96.67;102145.27;3596960;79;99778;-86
2022/01/10 21:09:25;;;;;;;110.50;42.27;;;;;;;-3.16;96.72;102144.63;3575989;81;99116;-83
2022/01/10 21:14:27;;;;;;;87.90;35.45;;;;;;;-3.28;96.94;102143.90;3530181;82;98577;-84
2022/01/10 21:19:28;;;;;;;83.37;37.97;;;;;;;-3.33;96.91;102154.03;3539916;82;98761;-83
2022/01/10 21:24:30;;;;;;;85.95;34.40;;;;;;;-3.41;96.94;102153.09;3615839;80;99055;-84
2022/01/10 21:29:32;;;;;;;66.77;30.87;;;;;;;-3.48;97.00;102162.38;3531958;79;99063;-86
2022/01/10 21:34:34;;;;;;;69.30;28.30;;;;;;;-3.56;96.94;102168.97;3541102;79;99482;-85
2022/01/10 21:39:35;;;;;;;74.17;28.37;;;;;;;-3.64;97.11;102169.37;3574823;80;98865;-85
2022/01/10 21:44:36;;;;;;;66.83;29.03;;;;;;;-3.70;97.03;102177.07;3514660;82;98425;-86
2022/01/10 21:49:38;;;;;;;72.47;28.90;;;;;;;-3.76;96.87;102179.89;3556183;81;98927;-86
2022/01/10 21:54:39;;;;;;;69.97;29.73;;;;;;;-3.84;97.06;102187.81;3531003;81;98157;-86
2022/01/10 21:59:40;;;;;;;75.90;30.03;;;;;;;-3.91;97.04;102195.21;3539274;81;99118;-86
2022/01/10 22:04:44;;;;;;;77.33;28.97;;;;;;;-3.97;97.10;102199.37;3583110;80;99225;-86
2022/01/10 22:09:45;;;;;;;70.93;29.67;;;;;;;-4.04;97.26;102200.05;3548564;81;99607;-86
2022/01/10 22:14:47;;;;;;;65.17;29.83;;;;;;;-4.11;97.26;102198.82;3541271;81;99513;-86
2022/01/10 22:19:51;;;;;;;74.70;28.25;;;;;;;-4.22;96.63;102205.04;3521279;82;99281;-85
2022/01/10 22:24:52;;;;;;;88.60;32.70;;;;;;;-4.31;97.16;102208.33;3549891;81;98922;-85
2022/01/10 22:29:53;;;;;;;79.00;30.90;;;;;;;-4.39;97.10;102211.36;3537242;80;98982;-85
2022/01/10 22:34:54;;;;;;;86.27;31.50;;;;;;;-4.47;97.50;102212.53;3668287;80;98353;-84
2022/01/10 22:39:55;;;;;;;84.70;31.40;;;;;;;-4.54;97.51;102215.88;3609665;80;99619;-85
2022/01/10 22:44:56;;;;;;;77.37;30.47;;;;;;;-4.63;97.56;102217.81;3646376;80;99164;-85
2022/01/10 22:49:57;;;;;;;79.17;31.00;;;;;;;-4.66;97.79;102223.64;3600160;81;98707;-85
2022/01/10 22:54:58;;;;;;;78.33;30.70;;;;;;;-4.71;97.95;102224.34;3636858;80;98830;-85